Time;durP1;ratioP1;P1;durP2;ratioP2;P2;SDS_P1;SDS_P2;PMS_P1;PMS_P2;Temp;Humidity;BMP_temperature;BMP_pressure;BME280_temperature;BME280_humidity;BME280_pressure;Samples;Min_cycle;Max_cycle;Signal;HPM_P1;HPM_P2
2022/03/13 00:00:54;;;;;;;0.30;0.10;;;-0.10;45.70;;;;;;5068195;28;20486;-82
2022/03/13 00:03:24;;;;;;;0.30;0.10;;;-0.20;45.80;;;;;;5076979;28;20199;-81
2022/03/13 00:05:52;;;;;;;0.30;0.10;;;-0.20;46.20;;;;;;5068021;28;20260;-82
2022/03/13 00:08:27;;;;;;;0.30;0.10;;;-0.30;46.40;;;;;;5067150;28;20288;-82
2022/03/13 00:10:57;;;;;;;0.30;0.10;;;-0.30;46.30;;;;;;5069495;28;20197;-83
2022/03/13 00:13:31;;;;;;;0.30;0.10;;;-0.30;46.50;;;;;;5068577;28;20275;-81
2022/03/13 00:15:59;;;;;;;0.30;0.20;;;-0.30;46.20;;;;;;5069207;28;20198;-81
2022/03/13 00:18:26;;;;;;;0.30;0.10;;;-0.30;46.50;;;;;;5070012;28;20240;-84
2022/03/13 00:20:54;;;;;;;0.30;0.20;;;-0.40;46.60;;;;;;5072010;28;20193;-83
2022/03/13 00:23:21;;;;;;;0.30;0.10;;;-0.40;46.40;;;;;;5067540;28;20203;-82
2022/03/13 00:25:48;;;;;;;0.30;0.10;;;-0.40;46.40;;;;;;5065846;28;20194;-82
2022/03/13 00:28:16;;;;;;;2.25;0.50;;;-0.40;46.50;;;;;;5063492;28;20875;-82
2022/03/13 00:30:43;;;;;;;0.30;0.10;;;-0.40;46.50;;;;;;5059657;28;20247;-85
2022/03/13 00:33:10;;;;;;;0.30;0.10;;;-0.40;46.70;;;;;;5066844;28;20209;-82
2022/03/13 00:35:38;;;;;;;0.30;0.20;;;-0.40;46.70;;;;;;5071183;28;20206;-86
2022/03/13 00:38:06;;;;;;;0.30;0.10;;;-0.40;46.60;;;;;;5066604;28;20209;-80
2022/03/13 00:40:34;;;;;;;0.30;0.10;;;-0.50;46.70;;;;;;5067541;28;20726;-80
2022/03/13 00:43:01;;;;;;;0.40;0.10;;;-0.50;47.00;;;;;;5066379;28;20199;-81
2022/03/13 00:45:29;;;;;;;0.30;0.20;;;-0.50;47.00;;;;;;5065475;28;20215;-83
2022/03/13 00:47:57;;;;;;;0.40;0.10;;;-0.50;47.00;;;;;;5065031;28;20229;-81
2022/03/13 00:50:24;;;;;;;0.40;0.10;;;-0.60;47.20;;;;;;5069005;28;20197;-82
2022/03/13 00:52:53;;;;;;;0.40;0.20;;;-0.60;47.30;;;;;;5065219;28;20251;-79
2022/03/13 00:55:20;;;;;;;0.40;0.10;;;-0.60;47.10;;;;;;5069751;28;20190;-83
2022/03/13 00:57:47;;;;;;;0.40;0.10;;;-0.60;47.20;;;;;;5067454;28;20289;-83
2022/03/13 01:00:15;;;;;;;0.40;0.10;;;-0.60;47.30;;;;;;5070753;28;20198;-82
2022/03/13 01:02:44;;;;;;;0.40;0.10;;;-0.70;47.50;;;;;;5067781;28;20191;-83
2022/03/13 01:05:11;;;;;;;0.40;0.30;;;-0.80;47.80;;;;;;5066592;28;20234;-83
2022/03/13 01:07:40;;;;;;;0.30;0.10;;;-0.80;48.10;;;;;;5068100;28;20692;-83
2022/03/13 01:10:08;;;;;;;0.40;0.10;;;-0.70;48.10;;;;;;5064524;28;20255;-82
2022/03/13 01:12:36;;;;;;;2.08;1.27;;;-0.70;48.10;;;;;;5070679;28;20666;-82
2022/03/13 01:15:03;;;;;;;6.80;0.82;;;-0.80;48.10;;;;;;5066271;28;20728;-82
2022/03/13 01:17:30;;;;;;;0.40;0.20;;;-0.90;48.20;;;;;;5065494;28;20304;-82
2022/03/13 01:19:59;;;;;;;0.30;0.10;;;-0.80;48.30;;;;;;5067868;28;20202;-82
2022/03/13 01:22:26;;;;;;;0.30;0.10;;;-0.80;48.30;;;;;;5068878;28;20203;-82
2022/03/13 01:24:53;;;;;;;0.30;0.10;;;-0.80;48.30;;;;;;5067763;28;20607;-83
2022/03/13 01:27:22;;;;;;;0.30;0.10;;;-0.90;48.50;;;;;;5069270;28;20237;-81
2022/03/13 01:29:49;;;;;;;0.40;0.10;;;-0.80;48.30;;;;;;5068206;28;20209;-82
2022/03/13 01:32:17;;;;;;;0.30;0.10;;;-0.90;48.70;;;;;;5066769;28;20232;-82
2022/03/13 01:34:49;;;;;;;1.55;1.50;;;-0.90;48.90;;;;;;5067892;28;20197;-83
2022/03/13 01:37:28;;;;;;;0.30;0.10;;;-1.00;48.80;;;;;;5070002;28;20237;-82
2022/03/13 01:39:56;;;;;;;0.93;0.85;;;-1.00;49.00;;;;;;5066739;28;21128;-82
2022/03/13 01:42:23;;;;;;;0.30;0.10;;;-1.00;49.10;;;;;;5072288;28;20369;-81
2022/03/13 01:44:50;;;;;;;0.60;0.20;;;-0.90;48.90;;;;;;5071242;28;20198;-82
2022/03/13 01:47:18;;;;;;;0.30;0.10;;;-0.90;48.80;;;;;;5071788;28;20289;-85
2022/03/13 01:49:45;;;;;;;0.30;0.10;;;-0.90;48.80;;;;;;5073245;28;20198;-81
2022/03/13 01:52:12;;;;;;;0.30;0.10;;;-0.90;49.00;;;;;;5071416;28;20205;-83
2022/03/13 01:54:43;;;;;;;0.30;0.10;;;-1.00;49.30;;;;;;5068813;28;20251;-82
2022/03/13 01:57:16;;;;;;;0.30;0.10;;;-1.00;49.30;;;;;;5074779;28;20547;-82
2022/03/13 01:59:43;;;;;;;0.40;0.35;;;-1.00;49.40;;;;;;5070373;28;20202;-83
2022/03/13 02:02:10;;;;;;;0.30;0.10;;;-1.00;49.70;;;;;;5065941;28;20296;-82
2022/03/13 02:04:37;;;;;;;0.40;0.30;;;-1.00;49.70;;;;;;5068618;28;20233;-85
2022/03/13 02:07:04;;;;;;;0.30;0.20;;;-1.10;49.90;;;;;;5065868;28;20230;-83
2022/03/13 02:09:31;;;;;;;0.30;0.20;;;-1.00;49.80;;;;;;5066538;28;20222;-83
2022/03/13 02:12:00;;;;;;;0.30;0.20;;;-1.10;50.00;;;;;;5064880;28;20200;-84
2022/03/13 02:14:27;;;;;;;0.30;0.10;;;-1.00;49.90;;;;;;5068659;28;20838;-85
2022/03/13 02:16:54;;;;;;;0.30;0.10;;;-1.00;49.90;;;;;;5067123;28;20888;-84
2022/03/13 02:19:21;;;;;;;0.30;0.10;;;-1.10;49.80;;;;;;5067953;28;20255;-84
2022/03/13 02:21:52;;;;;;;0.40;0.10;;;-1.10;49.80;;;;;;5066390;28;20206;-83
2022/03/13 02:24:24;;;;;;;0.40;0.20;;;-1.10;50.10;;;;;;5068132;28;20209;-82
2022/03/13 02:27:04;;;;;;;0.30;0.10;;;-1.10;50.20;;;;;;5065166;28;20290;-82
2022/03/13 02:29:31;;;;;;;0.30;0.10;;;-1.10;50.40;;;;;;5067134;28;20229;-82
2022/03/13 02:31:59;;;;;;;0.40;0.10;;;-1.10;50.30;;;;;;5069722;28;20201;-82
2022/03/13 02:34:27;;;;;;;0.40;0.20;;;-1.10;50.00;;;;;;5066234;28;20226;-81
2022/03/13 02:37:05;;;;;;;0.30;0.20;;;-1.10;50.10;;;;;;5068268;28;20271;-82
2022/03/13 02:39:37;;;;;;;0.30;0.20;;;-1.10;50.20;;;;;;5068474;28;20202;-84
2022/03/13 02:42:07;;;;;;;0.68;0.68;;;-1.20;50.20;;;;;;5064174;28;20228;-82
2022/03/13 02:44:34;;;;;;;0.30;0.10;;;-1.20;50.60;;;;;;5063940;28;20229;-82
2022/03/13 02:47:04;;;;;;;0.30;0.15;;;-1.20;50.60;;;;;;5068282;28;20794;-83
2022/03/13 02:49:33;;;;;;;0.30;0.10;;;-1.20;50.40;;;;;;5068492;28;20227;-82
2022/03/13 02:52:03;;;;;;;0.30;0.10;;;-1.10;50.10;;;;;;5062512;28;20636;-82
2022/03/13 02:54:30;;;;;;;0.40;0.10;;;-1.20;50.50;;;;;;5066882;28;20724;-82
2022/03/13 02:56:59;;;;;;;0.40;0.10;;;-1.20;50.30;;;;;;5063404;28;20197;-82
2022/03/13 02:59:26;;;;;;;0.40;0.10;;;-1.20;50.50;;;;;;5066302;28;20197;-82
2022/03/13 03:01:53;;;;;;;0.40;0.10;;;-1.30;50.80;;;;;;5065231;28;20653;-83
2022/03/13 03:04:25;;;;;;;0.30;0.10;;;-1.20;50.60;;;;;;5063604;28;20840;-83
2022/03/13 03:06:59;;;;;;;0.30;0.10;;;-1.30;51.00;;;;;;5066284;28;20602;-83
2022/03/13 03:09:28;;;;;;;0.30;0.20;;;-1.30;50.70;;;;;;5063213;28;20710;-83
2022/03/13 03:11:57;;;;;;;0.30;0.10;;;-1.30;50.80;;;;;;5065197;28;20202;-83
2022/03/13 03:14:25;;;;;;;0.30;0.10;;;-1.40;50.70;;;;;;5066462;28;20204;-83
2022/03/13 03:16:54;;;;;;;0.30;0.10;;;-1.40;51.00;;;;;;5063125;28;20261;-83
2022/03/13 03:19:21;;;;;;;0.30;0.10;;;-1.40;50.90;;;;;;5064883;28;20205;-82
2022/03/13 03:21:49;;;;;;;0.30;0.10;;;-1.50;51.30;;;;;;5065472;28;20251;-82
2022/03/13 03:24:18;;;;;;;0.52;0.38;;;-1.40;51.20;;;;;;5060865;28;20202;-83
2022/03/13 03:26:45;;;;;;;0.30;0.10;;;-1.40;51.10;;;;;;5056908;28;20209;-85
2022/03/13 03:29:13;;;;;;;0.47;0.43;;;-1.40;51.00;;;;;;5056406;28;20233;-83
2022/03/13 03:31:44;;;;;;;0.30;0.20;;;-1.50;51.10;;;;;;5059589;28;20753;-82
2022/03/13 03:34:12;;;;;;;0.30;0.20;;;-1.40;51.10;;;;;;5064089;28;20213;-82
2022/03/13 03:36:44;;;;;;;0.40;0.30;;;-1.50;51.30;;;;;;5067122;28;20216;-82
2022/03/13 03:39:12;;;;;;;0.30;0.10;;;-1.50;51.40;;;;;;5066910;28;20656;-82
2022/03/13 03:41:42;;;;;;;0.30;0.10;;;-1.60;51.60;;;;;;5060785;28;20246;-86
2022/03/13 03:44:09;;;;;;;0.30;0.10;;;-1.50;51.50;;;;;;5068012;28;20205;-83
2022/03/13 03:46:36;;;;;;;0.30;0.10;;;-1.60;51.50;;;;;;5062385;28;20258;-84
2022/03/13 03:49:05;;;;;;;0.30;0.10;;;-1.60;51.80;;;;;;5063716;28;20241;-83
2022/03/13 03:51:32;;;;;;;3.35;2.38;;;-1.60;51.80;;;;;;5068804;28;20202;-84
2022/03/13 03:53:59;;;;;;;1.25;0.63;;;-1.60;51.70;;;;;;5078742;28;20675;-82
2022/03/13 03:56:26;;;;;;;0.30;0.10;;;-1.60;51.70;;;;;;5067572;28;20714;-83
2022/03/13 03:58:53;;;;;;;0.30;0.10;;;-1.60;52.20;;;;;;5064753;28;20198;-82
2022/03/13 04:01:20;;;;;;;0.30;0.10;;;-1.60;51.60;;;;;;5062402;28;20243;-85
2022/03/13 04:03:47;;;;;;;1.83;0.73;;;-1.50;51.20;;;;;;5067091;28;20211;-82
2022/03/13 04:06:16;;;;;;;0.30;0.10;;;-1.60;51.50;;;;;;5063064;28;20213;-85
2022/03/13 04:08:43;;;;;;;0.30;0.10;;;-1.60;51.60;;;;;;5067192;28;20699;-81
2022/03/13 04:11:11;;;;;;;0.30;0.10;;;-1.60;51.70;;;;;;5066076;28;20289;-82
2022/03/13 04:13:38;;;;;;;0.30;0.20;;;-1.60;51.80;;;;;;5065168;28;20210;-82
2022/03/13 04:16:07;;;;;;;0.40;0.30;;;-1.60;51.70;;;;;;5070166;28;20228;-81
2022/03/13 04:18:34;;;;;;;0.30;0.10;;;-1.60;51.50;;;;;;5068014;28;20237;-83
2022/03/13 04:21:04;;;;;;;0.30;0.10;;;-1.70;51.70;;;;;;5069812;28;20267;-83
2022/03/13 04:23:33;;;;;;;0.30;0.20;;;-1.70;51.90;;;;;;5070392;28;20209;-81
2022/03/13 04:26:00;;;;;;;0.30;0.10;;;-1.80;52.10;;;;;;5065066;28;20210;-81
2022/03/13 04:28:27;;;;;;;0.30;0.20;;;-1.70;52.20;;;;;;5071367;28;20240;-81
2022/03/13 04:30:57;;;;;;;0.30;0.10;;;-1.70;52.10;;;;;;5068914;28;20209;-81
2022/03/13 04:33:25;;;;;;;0.30;0.10;;;-1.70;52.00;;;;;;5068474;28;20274;-81
2022/03/13 04:35:56;;;;;;;0.30;0.10;;;-1.70;52.20;;;;;;5069513;28;20617;-81
2022/03/13 04:38:24;;;;;;;0.40;0.20;;;-1.80;52.40;;;;;;5067323;28;20205;-81
2022/03/13 04:40:53;;;;;;;0.30;0.10;;;-1.80;52.40;;;;;;5069737;28;20194;-80
2022/03/13 04:43:21;;;;;;;0.30;0.10;;;-1.80;52.40;;;;;;5067660;28;20538;-82
2022/03/13 04:45:48;;;;;;;0.30;0.10;;;-1.80;52.40;;;;;;5068500;28;20541;-82
2022/03/13 04:48:15;;;;;;;0.30;0.10;;;-1.90;52.70;;;;;;5069761;28;20205;-81
2022/03/13 04:50:42;;;;;;;0.30;0.10;;;-1.90;52.80;;;;;;5065724;28;20275;-82
2022/03/13 04:53:10;;;;;;;0.30;0.10;;;-1.90;52.80;;;;;;5071429;28;20558;-81
2022/03/13 04:55:37;;;;;;;0.40;0.10;;;-2.00;53.00;;;;;;5067462;28;20213;-81
2022/03/13 04:58:06;;;;;;;0.40;0.20;;;-1.90;52.90;;;;;;5065979;28;20232;-84
2022/03/13 05:00:35;;;;;;;0.40;0.10;;;-1.90;52.90;;;;;;5060559;28;20289;-85
2022/03/13 05:03:02;;;;;;;0.40;0.10;;;-1.80;52.70;;;;;;5069872;28;20225;-85
2022/03/13 05:05:29;;;;;;;0.30;0.10;;;-1.80;52.60;;;;;;5059838;28;20198;-83
2022/03/13 05:07:56;;;;;;;0.30;0.10;;;-1.90;53.00;;;;;;5060281;28;20256;-84
2022/03/13 05:10:24;;;;;;;0.30;0.10;;;-2.00;52.80;;;;;;5053560;28;20215;-86
2022/03/13 05:12:51;;;;;;;0.30;0.10;;;-2.00;52.90;;;;;;5071444;28;20738;-83
2022/03/13 05:15:20;;;;;;;0.30;0.10;;;-2.00;53.10;;;;;;5070923;28;20197;-87
2022/03/13 05:17:47;;;;;;;0.30;0.10;;;-2.00;53.00;;;;;;5069764;28;20264;-83
2022/03/13 05:20:14;;;;;;;0.30;0.10;;;-1.90;52.90;;;;;;5065590;28;20279;-85
2022/03/13 05:22:41;;;;;;;0.30;0.10;;;-1.80;52.80;;;;;;5064952;28;20736;-86
2022/03/13 05:25:08;;;;;;;2.13;0.65;;;-1.80;52.80;;;;;;5067381;28;20263;-84
2022/03/13 05:27:35;;;;;;;0.30;0.10;;;-1.80;52.90;;;;;;5066283;28;20206;-83
2022/03/13 05:30:02;;;;;;;0.30;0.10;;;-1.80;52.80;;;;;;5064917;28;20287;-83
2022/03/13 05:32:30;;;;;;;0.30;0.10;;;-1.80;53.00;;;;;;5071057;28;20205;-89
2022/03/13 05:34:58;;;;;;;0.30;0.10;;;-1.90;53.00;;;;;;5061068;28;20579;-80
2022/03/13 05:37:25;;;;;;;0.30;0.10;;;-1.90;53.00;;;;;;5060552;28;20226;-82
2022/03/13 05:39:53;;;;;;;0.30;0.10;;;-1.80;52.90;;;;;;5068859;28;20206;-82
2022/03/13 05:42:23;;;;;;;0.30;0.10;;;-1.80;53.10;;;;;;5054507;28;20206;-84
2022/03/13 05:44:50;;;;;;;0.30;0.10;;;-1.90;53.20;;;;;;5065679;28;20205;-82
2022/03/13 05:47:18;;;;;;;0.30;0.10;;;-1.80;53.40;;;;;;5066082;28;20193;-86
2022/03/13 05:49:46;;;;;;;0.30;0.10;;;-1.80;53.30;;;;;;5067869;28;20224;-83
2022/03/13 05:52:14;;;;;;;0.30;0.15;;;-1.70;53.00;;;;;;5068231;28;20245;-82
2022/03/13 05:54:41;;;;;;;0.30;0.10;;;-1.70;53.20;;;;;;5064046;28;20236;-82
2022/03/13 05:57:10;;;;;;;0.30;0.10;;;-1.80;53.40;;;;;;5051176;28;20203;-82
2022/03/13 05:59:37;;;;;;;0.30;0.20;;;-1.70;53.10;;;;;;5065738;28;20198;-86
2022/03/13 06:02:04;;;;;;;0.30;0.20;;;-1.60;52.80;;;;;;5074638;28;20231;-86
2022/03/13 06:04:32;;;;;;;0.30;0.10;;;-1.50;52.70;;;;;;5057333;28;20199;-85
2022/03/13 06:07:00;;;;;;;0.30;0.10;;;-1.50;52.80;;;;;;5070631;28;20197;-82
2022/03/13 06:09:27;;;;;;;0.30;0.10;;;-1.50;52.80;;;;;;5067962;28;20576;-82
2022/03/13 06:11:54;;;;;;;0.30;0.20;;;-1.40;52.90;;;;;;5081567;28;20678;-82
2022/03/13 06:14:23;;;;;;;0.30;0.10;;;-1.40;53.00;;;;;;5064623;28;20198;-84
2022/03/13 06:16:50;;;;;;;0.30;0.10;;;-1.40;53.00;;;;;;5052261;28;20333;-82
2022/03/13 06:19:17;;;;;;;0.30;0.10;;;-1.30;52.80;;;;;;5062055;28;20212;-81
2022/03/13 06:21:46;;;;;;;0.30;0.20;;;-1.20;52.90;;;;;;5063296;28;20691;-81
2022/03/13 06:24:16;;;;;;;0.30;0.10;;;-1.10;52.50;;;;;;5070315;28;20203;-82
2022/03/13 06:26:43;;;;;;;0.57;0.57;;;-1.00;52.20;;;;;;5054246;28;20292;-81
2022/03/13 06:29:13;;;;;;;0.30;0.10;;;-1.00;51.80;;;;;;5062636;28;20644;-81
2022/03/13 06:31:40;;;;;;;1.70;0.40;;;-0.90;51.20;;;;;;5071342;28;20205;-84
2022/03/13 06:34:07;;;;;;;0.30;0.10;;;-0.90;51.70;;;;;;5070291;28;20198;-82
2022/03/13 06:36:35;;;;;;;1.00;0.75;;;-0.80;51.70;;;;;;5059341;28;20260;-82
2022/03/13 06:39:02;;;;;;;0.30;0.10;;;-0.70;51.70;;;;;;5062123;28;20277;-84
2022/03/13 06:41:31;;;;;;;0.30;0.20;;;-0.70;51.30;;;;;;5065516;28;20205;-81
2022/03/13 06:43:58;;;;;;;0.30;0.10;;;-0.60;51.60;;;;;;5050379;28;20201;-84
2022/03/13 06:46:25;;;;;;;0.30;0.10;;;-0.50;51.00;;;;;;5055777;28;20195;-84
2022/03/13 06:48:52;;;;;;;0.30;0.10;;;-0.50;51.10;;;;;;5054531;28;20252;-83
2022/03/13 06:51:20;;;;;;;0.30;0.10;;;-0.40;51.00;;;;;;5060679;28;20202;-81
2022/03/13 06:53:47;;;;;;;2.35;1.95;;;-0.40;50.90;;;;;;5056788;28;20206;-82
2022/03/13 06:56:14;;;;;;;0.93;0.40;;;-0.30;50.40;;;;;;5070064;28;20534;-81
2022/03/13 06:58:42;;;;;;;0.30;0.20;;;-0.30;50.10;;;;;;5065561;28;20198;-83
2022/03/13 07:01:10;;;;;;;0.30;0.10;;;-0.10;50.50;;;;;;5062603;28;20206;-81
2022/03/13 07:03:37;;;;;;;0.30;0.20;;;0.00;50.60;;;;;;5051612;28;20209;-81
2022/03/13 07:06:04;;;;;;;0.30;0.20;;;0.00;49.90;;;;;;5053122;28;20282;-80
2022/03/13 07:08:32;;;;;;;0.30;0.10;;;0.00;49.90;;;;;;5069044;28;20657;-85
2022/03/13 07:10:59;;;;;;;0.30;0.20;;;0.10;50.20;;;;;;5058996;28;20229;-81
2022/03/13 07:13:31;;;;;;;1.05;1.05;;;0.20;49.40;;;;;;5052443;28;20389;-85
2022/03/13 07:16:00;;;;;;;1.80;0.98;;;0.30;49.60;;;;;;5066089;28;20202;-86
2022/03/13 07:18:28;;;;;;;1.67;0.75;;;0.40;49.90;;;;;;5062818;28;20282;-84
2022/03/13 07:20:54;;;;;;;0.50;0.50;;;0.60;49.70;;;;;;5063447;28;20288;-86
2022/03/13 07:23:22;;;;;;;0.50;0.47;;;0.70;49.30;;;;;;5065658;28;20202;-83
2022/03/13 07:25:50;;;;;;;0.30;0.20;;;0.80;49.20;;;;;;5052849;28;20202;-87
2022/03/13 07:28:17;;;;;;;0.30;0.20;;;0.80;48.90;;;;;;5049311;28;20236;-82
2022/03/13 07:30:44;;;;;;;0.30;0.20;;;0.90;48.80;;;;;;5073033;28;20253;-85
2022/03/13 07:33:13;;;;;;;0.30;0.10;;;1.00;48.80;;;;;;5062904;28;20245;-85
2022/03/13 07:35:40;;;;;;;0.50;0.40;;;1.00;47.90;;;;;;5059755;28;20193;-83
2022/03/13 07:38:08;;;;;;;0.52;0.22;;;1.10;48.00;;;;;;5060549;28;20204;-86
2022/03/13 07:40:35;;;;;;;0.30;0.10;;;1.20;48.10;;;;;;5067387;28;20246;-82
2022/03/13 07:43:02;;;;;;;0.40;0.30;;;1.30;47.90;;;;;;5063712;28;20202;-85
2022/03/13 07:45:29;;;;;;;1.73;1.33;;;1.30;47.50;;;;;;5076474;28;20200;-84
2022/03/13 07:47:57;;;;;;;0.30;0.20;;;1.40;47.00;;;;;;5061894;28;20250;-85
2022/03/13 07:50:26;;;;;;;0.30;0.10;;;1.50;47.30;;;;;;5067506;28;20740;-86
2022/03/13 07:52:53;;;;;;;0.30;0.10;;;1.60;47.40;;;;;;5059948;28;20242;-84
2022/03/13 07:55:21;;;;;;;0.30;0.10;;;1.70;47.40;;;;;;5069937;28;20456;-87
2022/03/13 07:57:48;;;;;;;0.30;0.10;;;1.80;46.60;;;;;;5056620;28;20198;-85
2022/03/13 08:00:18;;;;;;;0.40;0.30;;;1.80;46.60;;;;;;5058916;28;20501;-84
2022/03/13 08:02:46;;;;;;;0.40;0.20;;;1.90;46.80;;;;;;5065943;28;20721;-81
2022/03/13 08:05:14;;;;;;;0.30;0.20;;;2.00;46.60;;;;;;5056728;28;20284;-80
2022/03/13 08:07:42;;;;;;;0.30;0.10;;;2.20;46.60;;;;;;5054870;28;20211;-80
2022/03/13 08:10:10;;;;;;;0.30;0.10;;;2.40;46.10;;;;;;5065898;28;20249;-84
2022/03/13 08:12:38;;;;;;;0.30;0.20;;;2.30;45.80;;;;;;5057514;28;21012;-84
2022/03/13 08:15:06;;;;;;;0.30;0.20;;;2.30;45.50;;;;;;5063341;28;20458;-81
2022/03/13 08:17:33;;;;;;;0.30;0.10;;;2.40;45.50;;;;;;5066686;28;20483;-81
2022/03/13 08:20:00;;;;;;;0.30;0.20;;;2.50;46.10;;;;;;5052988;28;20213;-83
2022/03/13 08:22:27;;;;;;;0.40;0.30;;;2.50;45.30;;;;;;5064912;28;20474;-82
2022/03/13 08:24:56;;;;;;;0.30;0.20;;;2.70;46.00;;;;;;5074487;28;20446;-83
2022/03/13 08:27:23;;;;;;;0.30;0.10;;;2.90;46.10;;;;;;5072426;28;20451;-84
2022/03/13 08:29:50;;;;;;;0.30;0.10;;;2.80;45.20;;;;;;5061632;28;20475;-82
2022/03/13 08:32:17;;;;;;;0.30;0.10;;;2.90;45.60;;;;;;5066459;28;20455;-81
2022/03/13 08:34:44;;;;;;;0.30;0.20;;;3.00;45.80;;;;;;5062798;28;20474;-81
2022/03/13 08:37:11;;;;;;;0.30;0.10;;;3.20;45.40;;;;;;5071970;28;20512;-81
2022/03/13 08:39:38;;;;;;;0.77;0.77;;;3.30;45.10;;;;;;5066082;28;20854;-81
2022/03/13 08:42:07;;;;;;;0.30;0.20;;;3.40;45.00;;;;;;5069434;28;20445;-84
2022/03/13 08:44:34;;;;;;;0.40;0.10;;;3.60;45.20;;;;;;5068381;28;20439;-81
2022/03/13 08:47:01;;;;;;;1.80;1.70;;;3.60;44.30;;;;;;5066515;28;20809;-82
2022/03/13 08:49:29;;;;;;;0.40;0.40;;;3.50;44.40;;;;;;5054016;28;20449;-83
2022/03/13 08:51:56;;;;;;;0.50;0.20;;;3.60;44.50;;;;;;5060888;28;20460;-82
2022/03/13 08:54:23;;;;;;;0.40;0.10;;;3.80;45.40;;;;;;5055004;28;20460;-84
2022/03/13 08:56:50;;;;;;;0.40;0.20;;;4.10;45.00;;;;;;5066204;28;20992;-82
2022/03/13 08:59:20;;;;;;;0.60;0.20;;;4.10;44.00;;;;;;5070051;28;20497;-81
2022/03/13 09:01:47;;;;;;;0.40;0.20;;;4.20;43.80;;;;;;5057895;28;20538;-81
2022/03/13 09:04:14;;;;;;;0.40;0.13;;;4.20;43.30;;;;;;5059500;28;20490;-81
2022/03/13 09:06:43;;;;;;;0.40;0.20;;;4.20;44.00;;;;;;5066840;28;20467;-82
2022/03/13 09:09:11;;;;;;;0.40;0.20;;;4.30;43.50;;;;;;5063326;28;20546;-81
2022/03/13 09:11:39;;;;;;;0.80;0.57;;;4.40;43.40;;;;;;5060812;28;20496;-82
2022/03/13 09:14:06;;;;;;;0.40;0.20;;;4.50;42.90;;;;;;5067830;28;20455;-84
2022/03/13 09:16:37;;;;;;;0.50;0.40;;;4.60;43.30;;;;;;5080903;28;20501;-79
2022/03/13 09:19:04;;;;;;;1.67;0.80;;;4.60;43.70;;;;;;5068677;28;20468;-79
2022/03/13 09:21:34;;;;;;;0.40;0.20;;;4.70;43.70;;;;;;5062727;28;20571;-80
2022/03/13 09:24:01;;;;;;;0.40;0.20;;;5.00;44.40;;;;;;5072419;28;20988;-80
2022/03/13 09:26:28;;;;;;;0.40;0.13;;;5.00;43.50;;;;;;5067083;28;20459;-80
2022/03/13 09:28:55;;;;;;;0.40;0.20;;;5.10;43.60;;;;;;5068330;28;20444;-80
2022/03/13 09:31:22;;;;;;;0.40;0.20;;;5.10;43.10;;;;;;5058208;28;20480;-78
2022/03/13 09:33:50;;;;;;;0.40;0.30;;;5.20;44.50;;;;;;5055222;28;20464;-83
2022/03/13 09:36:17;;;;;;;0.40;0.20;;;5.20;43.80;;;;;;5057687;28;20457;-79
2022/03/13 09:38:45;;;;;;;0.40;0.20;;;5.10;43.40;;;;;;5068869;28;20545;-80
2022/03/13 09:41:12;;;;;;;0.40;0.20;;;5.10;43.30;;;;;;5081405;28;20451;-79
2022/03/13 09:43:40;;;;;;;0.50;0.43;;;5.00;43.10;;;;;;5060900;28;20468;-83
2022/03/13 09:46:07;;;;;;;0.40;0.20;;;5.00;42.90;;;;;;5065430;28;20452;-83
2022/03/13 09:48:36;;;;;;;0.50;0.20;;;5.30;43.70;;;;;;5063027;28;20499;-83
2022/03/13 09:51:06;;;;;;;0.67;0.53;;;5.70;44.00;;;;;;5068545;28;20492;-85
2022/03/13 09:53:34;;;;;;;0.50;0.30;;;5.50;43.40;;;;;;5062094;28;20551;-82
2022/03/13 09:56:03;;;;;;;0.40;0.20;;;5.80;43.80;;;;;;5052657;28;20503;-82
2022/03/13 09:58:30;;;;;;;0.83;0.40;;;5.60;43.70;;;;;;5061798;28;20538;-82
2022/03/13 10:00:58;;;;;;;1.93;0.97;;;5.70;43.60;;;;;;5052110;28;20465;-86
2022/03/13 10:03:26;;;;;;;1.47;1.37;;;5.50;42.70;;;;;;5050500;28;20452;-84
2022/03/13 10:05:56;;;;;;;0.57;0.30;;;5.80;45.10;;;;;;5063266;28;20977;-86
2022/03/13 10:08:29;;;;;;;0.40;0.20;;;6.10;44.50;;;;;;5059833;28;20456;-83
2022/03/13 10:10:56;;;;;;;0.73;0.73;;;6.10;43.90;;;;;;5064370;28;20511;-84
2022/03/13 10:13:39;;;;;;;1.80;1.70;;;6.10;43.90;;;;;;5069627;28;20520;-84
2022/03/13 10:16:06;;;;;;;0.80;0.80;;;6.00;43.10;;;;;;5071443;28;20541;-81
2022/03/13 10:18:35;;;;;;;0.40;0.20;;;6.20;45.00;;;;;;5068821;28;20529;-83
2022/03/13 10:21:08;;;;;;;0.47;0.27;;;6.30;43.30;;;;;;5064380;28;20467;-83
2022/03/13 10:23:38;;;;;;;0.40;0.20;;;6.40;43.00;;;;;;5064330;28;21075;-85
2022/03/13 10:26:05;;;;;;;0.60;0.60;;;6.50;43.70;;;;;;5067280;28;20471;-85
2022/03/13 10:28:34;;;;;;;0.40;0.20;;;6.50;43.40;;;;;;5064890;28;20468;-84
2022/03/13 10:31:13;;;;;;;0.50;0.40;;;6.60;42.80;;;;;;5067773;28;20491;-85
2022/03/13 10:33:58;;;;;;;0.83;0.40;;;6.70;43.60;;;;;;5065994;28;20528;-85
2022/03/13 10:36:31;;;;;;;1.00;0.93;;;7.20;45.10;;;;;;5068171;28;20608;-85
2022/03/13 10:39:02;;;;;;;1367.07;681.37;;;7.30;44.30;;;;;;5066526;28;20477;-84
2022/03/13 10:41:45;;;;;;;0.50;0.50;;;7.20;41.90;;;;;;5063499;28;20514;-84
2022/03/13 10:44:16;;;;;;;0.40;0.20;;;7.20;43.30;;;;;;5066073;28;20531;-84
2022/03/13 10:46:43;;;;;;;46.67;1.30;;;7.30;43.30;;;;;;5063523;28;20471;-84
2022/03/13 10:49:15;;;;;;;1999.90;999.90;;;7.40;43.00;;;;;;5067652;28;20485;-85
2022/03/13 10:51:46;;;;;;;1483.30;240.83;;;7.40;42.10;;;;;;5067587;28;20485;-85
2022/03/13 10:54:29;;;;;;;176.33;97.77;;;7.50;43.30;;;;;;5071737;28;20438;-84
2022/03/13 10:57:07;;;;;;;1237.97;249.07;;;7.70;42.50;;;;;;5069712;28;20547;-87
2022/03/13 10:59:34;;;;;;;1707.83;429.30;;;7.70;42.50;;;;;;5064678;28;20460;-84
2022/03/13 11:02:12;;;;;;;660.17;131.73;;;7.70;41.30;;;;;;5071572;28;20887;-85
2022/03/13 11:04:50;;;;;;;6.77;0.40;;;7.60;41.10;;;;;;5066156;28;20520;-85
2022/03/13 11:07:18;;;;;;;12.33;0.97;;;7.70;41.40;;;;;;5060870;28;20546;-85
2022/03/13 11:09:47;;;;;;;4.13;0.30;;;7.70;41.40;;;;;;5065847;28;20962;-88
2022/03/13 11:12:17;;;;;;;2.80;0.40;;;8.00;40.90;;;;;;5062590;28;20480;-85
2022/03/13 11:14:46;;;;;;;1.43;0.43;;;8.10;40.90;;;;;;5064508;28;20503;-84
2022/03/13 11:17:16;;;;;;;8.40;0.30;;;8.10;40.80;;;;;;5063363;28;20521;-85
2022/03/13 11:19:44;;;;;;;39.13;0.70;;;8.10;40.40;;;;;;5068113;28;20940;-87
2022/03/13 11:22:11;;;;;;;1999.90;999.90;;;8.20;41.10;;;;;;5062716;28;20472;-87
2022/03/13 11:24:40;;;;;;;0.40;0.30;;;8.50;41.40;;;;;;5068404;28;20455;-85
2022/03/13 11:27:11;;;;;;;136.17;105.23;;;8.60;40.20;;;;;;5065922;28;20940;-84
2022/03/13 11:29:42;;;;;;;478.87;222.10;;;8.70;40.00;;;;;;5061190;28;20470;-85
2022/03/13 11:32:31;;;;;;;4.10;0.30;;;8.90;39.60;;;;;;5073020;28;20508;-84
2022/03/13 11:35:25;;;;;;;4.10;0.30;;;9.00;39.20;;;;;;5071113;28;20497;-84
2022/03/13 11:37:54;;;;;;;4.10;0.27;;;9.10;38.50;;;;;;5066744;28;20506;-84
2022/03/13 11:40:30;;;;;;;147.30;96.17;;;9.00;37.70;;;;;;5059783;28;20612;-88
2022/03/13 11:43:08;;;;;;;1999.90;999.90;;;9.20;39.10;;;;;;5063683;28;20462;-87
2022/03/13 11:45:38;;;;;;;1999.90;999.90;;;9.30;39.70;;;;;;5057325;28;20495;-87
2022/03/13 11:48:40;;;;;;;1999.90;999.90;;;9.50;38.60;;;;;;5061416;28;20474;-85
2022/03/13 11:51:08;;;;;;;1999.90;999.90;;;9.30;37.90;;;;;;5063020;28;20479;-85
2022/03/13 11:53:49;;;;;;;1999.90;999.90;;;9.20;38.10;;;;;;5067608;28;20444;-89
2022/03/13 11:56:27;;;;;;;1999.90;999.90;;;9.40;38.10;;;;;;5066971;28;20836;-85
2022/03/13 11:59:29;;;;;;;418.87;176.77;;;9.40;38.00;;;;;;5049454;28;20463;-86
2022/03/13 12:01:56;;;;;;;18.73;16.23;;;9.60;37.90;;;;;;5063007;28;20479;-85
2022/03/13 12:04:27;;;;;;;6.87;0.30;;;9.90;39.40;;;;;;5066198;28;20484;-84
2022/03/13 12:07:00;;;;;;;1112.03;484.63;;;9.80;37.90;;;;;;5062392;28;20480;-86
2022/03/13 12:09:42;;;;;;;11.63;6.23;;;10.00;37.80;;;;;;5065174;28;20986;-84
2022/03/13 12:12:12;;;;;;;290.80;71.17;;;10.20;37.10;;;;;;5068582;28;20487;-83
2022/03/13 12:15:02;;;;;;;165.23;85.90;;;10.00;36.20;;;;;;5069070;28;21195;-85
2022/03/13 12:17:30;;;;;;;59.53;5.03;;;10.00;36.00;;;;;;5062911;28;20506;-84
2022/03/13 12:19:58;;;;;;;69.70;11.10;;;10.00;36.50;;;;;;5064354;28;20486;-83
2022/03/13 12:22:27;;;;;;;78.27;36.77;;;10.10;36.00;;;;;;5061541;28;20458;-83
2022/03/13 12:24:55;;;;;;;1006.93;252.37;;;10.00;35.70;;;;;;5061181;28;20460;-84
2022/03/13 12:27:23;;;;;;;65.53;8.00;;;10.10;35.40;;;;;;5069009;28;20455;-85
2022/03/13 12:29:58;;;;;;;104.53;15.93;;;10.50;36.70;;;;;;5067732;28;21279;-83
2022/03/13 12:32:31;;;;;;;10.00;1.90;;;10.80;36.00;;;;;;5062336;28;20550;-85
2022/03/13 12:34:59;;;;;;;73.43;27.80;;;10.80;35.30;;;;;;5066403;28;20517;-83
2022/03/13 12:37:27;;;;;;;11.30;0.67;;;10.80;35.00;;;;;;5067398;28;21017;-83
2022/03/13 12:39:57;;;;;;;8.77;0.30;;;10.90;36.50;;;;;;5069399;28;20497;-87
2022/03/13 12:42:26;;;;;;;9.03;1.47;;;11.00;35.30;;;;;;5069575;28;20464;-84
2022/03/13 12:45:08;;;;;;;8.20;0.60;;;11.00;35.30;;;;;;5069711;28;20479;-83
2022/03/13 12:47:40;;;;;;;7.60;0.40;;;11.00;34.80;;;;;;5071626;28;20513;-83
2022/03/13 12:50:11;;;;;;;8.90;1.07;;;11.10;34.60;;;;;;5064918;28;20463;-83
2022/03/13 12:52:39;;;;;;;7.00;0.20;;;10.80;34.70;;;;;;5066000;28;20484;-83
2022/03/13 12:55:08;;;;;;;7.00;0.53;;;11.00;34.80;;;;;;5069271;28;20509;-83
2022/03/13 12:57:35;;;;;;;7.33;1.00;;;10.80;34.10;;;;;;5070741;28;21300;-86